Weather at Raja Haji Fisabilillah International Airport

Public forecast

Using degrees Celsius for public forecast. Weather courtesy of forecast.io.

Current aviation weather report (METAR) for Raja Haji Fisabilillah International Airport

2024/05/24 07:00 (retrieved 24 minutes ago)

WIDN 240700Z 15002KT 8000 SCT015 27/26 Q1007 NOSIG

Closest aviation forecast (TAF) to Raja Haji Fisabilillah International Airport

Closest forecast is Hang Nadim International Airport, 27.5 nm (50.9 km) WNW.

2024/05/24 06:00 (retrieved 1 hour ago)

TAF WIDD 240500Z 2406/2506 16006KT 9000 SCT014 TEMPO 2406/2408 5000 RA